createdAt,value
2023-02-27T00:03:18.615Z,1015.4
2023-02-27T00:08:23.846Z,1015.3
2023-02-27T00:13:29.804Z,1015.4
2023-02-27T00:18:35.907Z,1015.4
2023-02-27T00:23:42.004Z,1015.4
2023-02-27T00:28:48.140Z,1015.4
2023-02-27T00:33:54.214Z,1015.4
2023-02-27T00:39:00.302Z,1015.5
2023-02-27T00:44:06.382Z,1015.5
2023-02-27T00:49:12.542Z,1015.5
2023-02-27T00:54:18.592Z,1015.5
2023-02-27T01:04:30.797Z,1015.4
2023-02-27T01:09:36.895Z,1015.4
2023-02-27T01:14:41.997Z,1015.5
2023-02-27T01:19:48.098Z,1015.4
2023-02-27T01:24:54.198Z,1015.4
2023-02-27T01:30:00.308Z,1015.4
2023-02-27T01:35:06.386Z,1015.4
2023-02-27T01:40:12.505Z,1015.4
2023-02-27T01:45:18.596Z,1015.4
2023-02-27T01:50:24.695Z,1015.4
2023-02-27T01:55:30.791Z,1015.4
2023-02-27T02:00:36.890Z,1015.4
2023-02-27T02:05:42.984Z,1015.5
2023-02-27T02:10:49.093Z,1015.5
2023-02-27T02:15:55.193Z,1015.5
2023-02-27T02:21:00.315Z,1015.5
2023-02-27T02:26:06.409Z,1015.5
2023-02-27T02:31:12.494Z,1015.5
2023-02-27T02:36:18.610Z,1015.5
2023-02-27T02:41:24.723Z,1015.5
2023-02-27T02:46:30.805Z,1015.5
2023-02-27T02:51:36.886Z,1015.5
2023-02-27T02:56:43.008Z,1015.5
2023-02-27T03:01:49.091Z,1015.5
2023-02-27T03:06:55.199Z,1015.5
2023-02-27T03:12:01.281Z,1015.6
2023-02-27T03:17:07.400Z,1015.6
2023-02-27T03:22:13.489Z,1015.6
2023-02-27T03:27:18.599Z,1015.7
2023-02-27T03:32:24.753Z,1015.7
2023-02-27T03:37:30.855Z,1015.7
2023-02-27T03:42:36.908Z,1015.7
2023-02-27T03:47:42.981Z,1015.8
2023-02-27T03:52:49.100Z,1015.8
2023-02-27T03:57:55.193Z,1015.8
2023-02-27T04:03:01.294Z,1015.8
2023-02-27T04:08:07.413Z,1015.9
2023-02-27T04:13:13.498Z,1016
2023-02-27T04:18:19.576Z,1016
2023-02-27T04:23:25.681Z,1016
2023-02-27T04:28:31.806Z,1016.1
2023-02-27T04:33:36.917Z,1016.1
2023-02-27T04:38:42.996Z,1016.2
2023-02-27T04:43:49.101Z,1016.3
2023-02-27T04:48:55.209Z,1016.3
2023-02-27T04:54:01.307Z,1016.3
2023-02-27T04:59:07.395Z,1016.3
2023-02-27T05:04:13.500Z,1016.3
2023-02-27T05:09:19.600Z,1016.3
2023-02-27T05:14:25.700Z,1016.4
2023-02-27T05:19:31.799Z,1016.4
2023-02-27T05:24:37.907Z,1016.4
2023-02-27T05:29:44.023Z,1016.5
2023-02-27T05:39:56.200Z,1016.6
2023-02-27T05:45:01.303Z,1016.6
2023-02-27T05:50:07.438Z,1016.4
2023-02-27T05:55:13.505Z,1016.3
2023-02-27T06:00:19.608Z,1016.4
2023-02-27T06:05:25.712Z,1016.5
2023-02-27T06:10:31.812Z,1016.6
2023-02-27T06:15:37.903Z,1016.7
2023-02-27T06:20:44.046Z,1016.6
2023-02-27T06:25:50.090Z,1016.7
2023-02-27T06:30:56.244Z,1016.7
2023-02-27T06:36:02.297Z,1016.8
2023-02-27T06:41:08.387Z,1016.8
2023-02-27T06:46:14.503Z,1016.9
2023-02-27T06:51:19.591Z,1017
2023-02-27T06:56:25.697Z,1017.1
2023-02-27T07:06:37.910Z,1017.1
2023-02-27T07:11:43.992Z,1017.3
2023-02-27T07:16:50.107Z,1017.3
2023-02-27T07:21:56.189Z,1017.3
2023-02-27T07:27:02.296Z,1017.3
2023-02-27T07:32:08.400Z,1017.4
2023-02-27T07:37:14.501Z,1017.3
2023-02-27T07:42:20.593Z,1017.3
2023-02-27T07:47:26.700Z,1017.4
2023-02-27T07:52:32.950Z,1017.4
2023-02-27T07:57:37.992Z,1017.3
2023-02-27T08:02:44.051Z,1017.4
2023-02-27T08:07:50.116Z,1017.4
2023-02-27T08:12:56.203Z,1017.3
2023-02-27T08:18:02.367Z,1017.5
2023-02-27T08:23:08.402Z,1017.5
2023-02-27T08:28:14.496Z,1017.6
2023-02-27T08:33:20.607Z,1017.6
2023-02-27T08:38:26.693Z,1017.5
2023-02-27T08:43:32.785Z,1017.5
2023-02-27T08:48:38.897Z,1017.4
2023-02-27T08:53:45.053Z,1017.4
2023-02-27T08:58:51.095Z,1017.4
2023-02-27T09:03:56.485Z,1017.4
2023-02-27T09:09:02.316Z,1017.5
2023-02-27T09:14:08.405Z,1017.5
2023-02-27T09:19:14.492Z,1017.4
2023-02-27T09:24:20.654Z,1017.5
2023-02-27T09:29:25.706Z,1017.5
2023-02-27T09:34:31.904Z,1017.5
2023-02-27T09:39:38.013Z,1017.5
2023-02-27T09:44:43.995Z,1017.6
2023-02-27T09:49:50.103Z,1017.6
2023-02-27T09:54:56.267Z,1017.5
2023-02-27T10:00:02.443Z,1017.7
2023-02-27T10:05:08.465Z,1017.6
2023-02-27T10:10:14.531Z,1017.6
2023-02-27T10:15:20.647Z,1017.6
2023-02-27T10:20:26.691Z,1017.7
2023-02-27T10:25:32.781Z,1017.6
2023-02-27T10:30:38.879Z,1017.6
2023-02-27T10:35:44.120Z,1017.7
2023-02-27T10:40:50.115Z,1017.7
2023-02-27T10:45:56.189Z,1017.6
2023-02-27T10:51:02.348Z,1017.6
2023-02-27T10:56:08.392Z,1017.5
2023-02-27T11:01:14.523Z,1017.5
2023-02-27T11:06:20.563Z,1017.5
2023-02-27T11:11:26.646Z,1017.6
2023-02-27T11:16:32.754Z,1017.5
2023-02-27T11:21:38.839Z,1017.4
2023-02-27T11:26:44.955Z,1017.4
2023-02-27T11:31:51.045Z,1017.5
2023-02-27T11:36:57.143Z,1017.5
2023-02-27T11:42:02.253Z,1017.4
2023-02-27T11:47:08.376Z,1017.4
2023-02-27T11:52:14.480Z,1017.3
2023-02-27T11:57:20.576Z,1017.3
2023-02-27T12:02:26.640Z,1017.2
2023-02-27T12:07:32.790Z,1017.2
2023-02-27T12:12:38.892Z,1017.2
2023-02-27T12:17:44.952Z,1017.1
2023-02-27T12:22:51.085Z,1017.1
2023-02-27T12:27:57.135Z,1017.1
2023-02-27T12:33:03.209Z,1017.1
2023-02-27T12:38:09.324Z,1017.1
2023-02-27T12:43:15.414Z,1017.1
2023-02-27T12:48:20.527Z,1017
2023-02-27T12:53:26.618Z,1017.2
2023-02-27T12:58:32.741Z,1017.2
2023-02-27T13:03:38.803Z,1017.2
2023-02-27T13:08:44.925Z,1017.2
2023-02-27T13:13:51.013Z,1017.2
2023-02-27T13:18:57.106Z,1017.1
2023-02-27T13:24:03.213Z,1017.1
2023-02-27T13:29:09.304Z,1017.2
2023-02-27T13:34:15.399Z,1017.2
2023-02-27T13:39:21.485Z,1017.2
2023-02-27T13:44:27.663Z,1017.2
2023-02-27T13:49:33.688Z,1017.3
2023-02-27T13:54:38.877Z,1017.3
2023-02-27T13:59:45.075Z,1017.3
2023-02-27T14:04:51.063Z,1017.3
2023-02-27T14:09:57.082Z,1017.2
2023-02-27T14:15:03.182Z,1017.3
2023-02-27T14:20:09.277Z,1017.3
2023-02-27T14:25:15.365Z,1017.2
2023-02-27T14:30:21.473Z,1017.2
2023-02-27T14:35:27.579Z,1017.3
2023-02-27T14:40:33.669Z,1017.4
2023-02-27T14:45:39.765Z,1017.4
2023-02-27T14:50:45.866Z,1017.5
2023-02-27T14:55:51.952Z,1017.5
2023-02-27T15:00:57.071Z,1017.5
2023-02-27T15:06:03.168Z,1017.5
2023-02-27T15:11:09.263Z,1017.5
2023-02-27T15:16:15.373Z,1017.5
2023-02-27T15:21:21.465Z,1017.5
2023-02-27T15:26:27.593Z,1017.5
2023-02-27T15:31:33.664Z,1017.5
2023-02-27T15:36:39.754Z,1017.4
2023-02-27T15:41:45.865Z,1017.5
2023-02-27T15:46:51.952Z,1017.5
2023-02-27T15:51:58.053Z,1017.5
2023-02-27T15:57:04.142Z,1017.6
2023-02-27T16:02:10.252Z,1017.7
2023-02-27T16:07:15.370Z,1017.8
2023-02-27T16:12:21.458Z,1017.8
2023-02-27T16:17:27.561Z,1017.8
2023-02-27T16:22:33.639Z,1018
2023-02-27T16:27:39.769Z,1018
2023-02-27T16:32:45.845Z,1018
2023-02-27T16:37:51.942Z,1018.1
2023-02-27T16:42:58.067Z,1018.2
2023-02-27T16:48:04.141Z,1018.2
2023-02-27T16:53:10.224Z,1018.2
2023-02-27T16:58:16.340Z,1018.3
2023-02-27T17:03:22.417Z,1018.3
2023-02-27T17:08:28.545Z,1018.4
2023-02-27T17:13:33.681Z,1018.4
2023-02-27T17:18:39.733Z,1018.5
2023-02-27T17:23:45.829Z,1018.6
2023-02-27T17:28:51.919Z,1018.6
2023-02-27T17:33:58.040Z,1018.6
2023-02-27T17:39:04.125Z,1018.7
2023-02-27T17:44:10.214Z,1018.6
2023-02-27T17:49:16.335Z,1018.6
2023-02-27T17:54:22.419Z,1018.7
2023-02-27T17:59:28.522Z,1018.7
2023-02-27T18:04:34.595Z,1018.7
2023-02-27T18:09:40.712Z,1018.7
2023-02-27T18:14:46.799Z,1018.7
2023-02-27T18:19:51.905Z,1018.8
2023-02-27T18:24:58.017Z,1018.8
2023-02-27T18:30:04.094Z,1018.8
2023-02-27T18:35:10.247Z,1018.8
2023-02-27T18:40:16.314Z,1018.8
2023-02-27T18:45:22.418Z,1018.9
2023-02-27T18:50:28.641Z,1018.9
2023-02-27T18:55:34.683Z,1018.8
2023-02-27T19:00:40.714Z,1018.8
2023-02-27T19:05:46.816Z,1018.9
2023-02-27T19:10:52.935Z,1018.9
2023-02-27T19:15:58.993Z,1018.9
2023-02-27T19:21:05.112Z,1018.9
2023-02-27T19:26:10.213Z,1018.9
2023-02-27T19:31:16.297Z,1019
2023-02-27T19:36:22.486Z,1019
2023-02-27T19:41:28.559Z,1018.9
2023-02-27T19:46:34.622Z,1018.9
2023-02-27T19:51:40.803Z,1018.8
2023-02-27T19:56:46.980Z,1018.9
2023-02-27T20:01:52.921Z,1018.9
2023-02-27T20:06:59.005Z,1019
2023-02-27T20:12:05.233Z,1019.1
2023-02-27T20:17:11.201Z,1019.1
2023-02-27T20:22:17.301Z,1019
2023-02-27T20:27:23.408Z,1019.1
2023-02-27T20:32:28.511Z,1019
2023-02-27T20:37:34.647Z,1019
2023-02-27T20:42:40.707Z,1019
2023-02-27T20:47:46.810Z,1018.9
2023-02-27T20:52:52.986Z,1019
2023-02-27T20:57:59.020Z,1019
2023-02-27T21:03:05.138Z,1019
2023-02-27T21:08:11.210Z,1019
2023-02-27T21:13:17.334Z,1018.9
2023-02-27T21:18:23.421Z,1018.9
2023-02-27T21:23:29.512Z,1019
2023-02-27T21:28:35.613Z,1019
2023-02-27T21:33:41.754Z,1019.1
2023-02-27T21:38:46.850Z,1019
2023-02-27T21:43:52.927Z,1019
2023-02-27T21:48:59.032Z,1019
2023-02-27T21:54:05.107Z,1019.1
2023-02-27T21:59:11.208Z,1019
2023-02-27T22:04:17.316Z,1019
2023-02-27T22:09:23.427Z,1019.2
2023-02-27T22:14:29.500Z,1019.1
2023-02-27T22:19:35.608Z,1019.2
2023-02-27T22:24:41.700Z,1019.1
2023-02-27T22:29:47.984Z,1019.1
2023-02-27T22:34:53.907Z,1019.2
2023-02-27T22:40:00.014Z,1019.2
2023-02-27T22:45:05.114Z,1019.1
2023-02-27T22:50:11.218Z,1019.2
2023-02-27T22:55:17.346Z,1019.2
2023-02-27T23:00:23.402Z,1019.2
2023-02-27T23:05:29.511Z,1019.2
2023-02-27T23:10:35.603Z,1019.2
2023-02-27T23:15:41.707Z,1019.4
2023-02-27T23:20:47.821Z,1019.4
2023-02-27T23:25:53.902Z,1019.4
2023-02-27T23:31:00.006Z,1019.5
2023-02-27T23:36:06.112Z,1019.4
2023-02-27T23:41:12.227Z,1019.5
2023-02-27T23:46:18.322Z,1019.5
2023-02-27T23:51:23.403Z,1019.5
2023-02-27T23:56:29.535Z,1019.5
